Delray Beach, FL

7:17 AM EDT on September 01, 2014 (GMT -0400)
University Gardens | Change Station
CLOSE
Current Station
Personal Weather Station
Location: Boca Raton, FL
Elevation: 39 ft
Nearby Weather Stations

Elev 39 ft 26.39 °N, 80.09 °W | Updated 43 seconds ago

Clear
Clear
83.7 °F
Feels Like 90 °F
N
0.9
Wind Variable Wind from ENE
Gusts 0.9 mph

Today
High -- | Low -- °F
--% Chance of Precip.
Yesterday
High -- | Low -- °F
Precip. -- in
7:00 AM 7:40 PM
Waxing Crescent, 40% visible
Pressure 30.05 in
Visibility 10.0 miles
Clouds Few 2600 ft
Heat Index 90 °F
Dew Point 73 °F
Humidity 70%
Rainfall 0.00 in
Snow Depth Not available.
UV 0 out of 12
Pollen 5.20 out of 12
PM2.5 Moderate
Flu Activity Not available.
METAR KPBI 011053Z 10008KT 10SM FEW026 28/23 A3005 RMK AO2 SLP175 T02830233 $

More Conditions Fewer Conditions

Pressure 30.05 in
Visibility 10.0 miles
Clouds Few 2600 ft
Heat Index 90 °F
Dew Point 73 °F
Humidity 70%
Rainfall 0.00 in
Snow Depth Not available.
UV 0 out of 12
Pollen 5.20 out of 12
PM2.5 Moderate
Flu Activity Not available.
METAR KPBI 011053Z 10008KT 10SM FEW026 28/23 A3005 RMK AO2 SLP175 T02830233 $

More Conditions Fewer Conditions

10-Day Weather Forecast

Almanac

Astronomy

Sep. 01, 2014 Rise Set
Actual Time 7:00 AM EDT 7:40 PM EDT
Civil Twilight 6:36 AM EDT 8:03 PM EDT
Nautical Twilight 6:08 AM EDT 8:31 PM EDT
Astronomical Twilight 5:40 AM EDT 8:59 PM EDT
Moon 1:06 PM EDT No Moon Set
Length of Visible Light 13h 26m
Length of Day
12h 39m
Tomorrow will be 1m 29s shorter.
Waxing Crescent, 40% of the Moon is Illuminated
Today
Waxing Crescent
Sep 2
First Quarter
Sep 8
Full
Sep 15
Last Quarter
Sep 24
New

Today's Extremes

State Highs State Lows

Community

WunderPhotos

Upload Photos

1,749,188 photos uploaded!

Nearby

Air Quality

  Air Quality AQ Index Pollutant
Yesterday Moderate
PM2.5
Yesterday Good
OZONE
Current Moderate
PM2.5
Monday Good
OZONE
Monday Good
PM2.5

Snow Depth

Station Depth Elevation
No new snow has been reported.

Earthquake Activity

City Distance Mag. Time & Date
No recent earthquake activity has been reported nearby.
Minimum magnitude displayed is 2.5.

Coastal Water Temperatures

Place Temperature
Lake Worth, FL 86.0 °F
Virginia Key, FL 87.1 °F

Nearby Weather Stations